• Join FlightAware (Why Join?)
  • Login
  • US Flag 
08:31PM EST


 

Airport Tracker/Info


-or-


 

Live Flight TrackerFlight Track Log ✈ DAL3676 ✈ 25-Apr-2013 ✈ KHSV - KDTW

Flight Track Log - Related Links

Times and Time Zones

All times are in EDT time to prevent confusion due to time zone crossing. See the DAL3676 flight status page for this flight to view local times or setup timezone preferences in your user account.

Time Position Orientation Groundspeed Altitude Reporting Facility
EDT Latitude Longitude Course Direction KTS MPH feet Rate Location/Type
07:07PM 34.7133 -86.7644 North 150 173 3,300  Level Memphis Center
07:08PM 34.7758 -86.7644 360° North 202 232 5,400 2,400 Climbing Memphis Center
07:09PM 34.8508 -86.7586 North 237 273 8,200 2,580 Climbing Memphis Center
07:10PM 34.9258 -86.7556 North 259 298 10,600 1,740 Climbing Memphis Center
07:11PM 35.1070 -86.7426 North  Level FlightAware Approximate
07:11PM 35.0133 -86.7492 North 285 328 11,700  Level Memphis Center
07:12PM 35.2017 -86.7332 North  Level FlightAware Approximate
07:12PM 35.1047 -86.7428 North 309 356 13,700  Level Memphis Center
07:13PM 35.3024 -86.7231 North  Level FlightAware Approximate
07:13PM 35.1903 -86.7392 North 327 376 15,300  Level Memphis Center
07:14PM 35.2861 -86.7322 North 333 383 16,900 1,320 Climbing Memphis Center
07:15PM 35.3944 -86.7275 North 344 396 18,000 1,200 Climbing Memphis Center
07:16PM 35.4933 -86.6928 16° North 355 409 19,400 960 Climbing Memphis Center
07:17PM 35.5919 -86.6397 24° Northeast 362 417 20,000 840 Climbing Memphis Center
07:18PM 35.6903 -86.5792 27° Northeast 378 435 21,100 1,020 Climbing Memphis Center
07:19PM 35.7950 -86.5947 353° North 363 418 22,100 960 Climbing Memphis Center
07:20PM 35.8939 -86.6211 348° North 363 418 23,100 960 Climbing Memphis Center
07:21PM 35.9925 -86.6472 348° North 368 423 24,100 900 Climbing Memphis Center
07:22PM 36.0933 -86.6736 348° North 368 423 24,900 600 Climbing Memphis Center
07:23PM 36.1961 -86.6947 351° North 368 423 25,400 480 Climbing Memphis Center
07:24PM 36.3031 -86.7106 353° North 374 430 25,900 600 Climbing Memphis Center
07:25PM 36.4078 -86.7289 352° North 380 437 26,700 900 Climbing Memphis Center
07:26PM 36.5125 -86.7500 351° North 385 443 27,700 960 Climbing Memphis Center
07:27PM 36.6111 -86.7664 352° North 364 419 28,700 900 Climbing Memphis Center
07:28PM 36.7075 -86.7853 351° North 353 406 29,600 600 Climbing Memphis Center
07:29PM 36.8058 -86.8017 352° North 353 406 30,000 180 Climbing Memphis Center
07:30PM 36.9064 -86.8206 351° North 359 413 30,000  Level Memphis Center
07:32PM 37.0978 -86.8519 353° North 380 437 30,000  Level Indianapolis Center
07:33PM 37.2056 -86.8708 352° North 386 444 30,000  Level Indianapolis Center
07:34PM 37.3128 -86.8906 352° North 386 444 30,000  Level Indianapolis Center
07:35PM 37.4217 -86.9014 355° North 388 447 30,000  Level Indianapolis Center
07:36PM 37.5506 -86.8725 10° North 416 479 30,000  Level Indianapolis Center
07:38PM 37.6653 -86.8453 11° North 418 481 30,000  Level Indianapolis Center
07:39PM 37.7814 -86.8217 North 420 483 30,000  Level Indianapolis Center
07:40PM 37.8978 -86.7983 North 425 489 30,000  Level Indianapolis Center
07:41PM 38.0131 -86.7728 10° North 421 484 30,000  Level Indianapolis Center
07:42PM 38.1286 -86.7469 10° North 423 487 30,000  Level Indianapolis Center
07:43PM 38.2431 -86.7214 10° North 421 484 30,000  Level Indianapolis Center
07:44PM 38.3811 -86.6917 10° North 422 486 30,000  Level Indianapolis Center
07:45PM 38.4964 -86.6667 10° North 422 486 30,000  Level Indianapolis Center
07:46PM 38.6111 -86.6403 10° North 420 483 30,000  Level Indianapolis Center
07:47PM 38.7272 -86.6153 10° North 422 486 30,000  Level Indianapolis Center
07:48PM 38.8419 -86.5894 10° North 418 481 30,000  Level Indianapolis Center
07:49PM 38.9608 -86.5619 10° North 420 483 30,000  Level Indianapolis Center
07:50PM 39.0756 -86.5369 10° North 417 480 30,000  Level Indianapolis Center
07:51PM 39.2097 -86.5058 10° North 417 480 30,000  Level Indianapolis Center
07:52PM 39.3236 -86.4800 10° North 414 476 30,000  Level Indianapolis Center
07:53PM 39.4375 -86.4550 10° North 411 473 30,000  Level Indianapolis Center
07:54PM 39.5517 -86.4347 North 410 472 30,000  Level Indianapolis Center
07:55PM 39.6669 -86.4156 North 409 471 30,000  Level Indianapolis Center
07:56PM 39.7722 -86.3597 22° Northeast 432 497 30,000  Level Indianapolis Center
07:57PM 39.8842 -86.2539 36° Northeast 450 518 30,000  Level Indianapolis Center
07:58PM 39.9353 -86.2047 36° Northeast 451 519 30,000  Level Chicago Center
07:59PM 40.0375 -86.1075 36° Northeast 450 518 30,000  Level Chicago Center
07:59PM 40.0886 -86.0589 36° Northeast 451 519 30,000  Level Indianapolis Center
08:00PM 40.1392 -86.0103 36° Northeast 449 517 30,000  Level Chicago Center
08:01PM 40.2911 -85.8639 36° Northeast 449 517 30,000 -60 Level Indianapolis Center
08:02PM 40.3417 -85.8153 36° Northeast 449 517 29,900 -1,080 Descending Chicago Center
08:03PM 40.4431 -85.7178 36° Northeast 449 517 28,400 -1,440 Descending Chicago Center
08:04PM 40.5411 -85.6208 37° Northeast 442 509 27,000 -1,200 Descending Chicago Center
08:05PM 40.6528 -85.5125 36° Northeast 428 493 26,000 -1,200 Descending Chicago Center
08:06PM 40.7419 -85.4222 37° Northeast 434 499 24,600 -1,440 Descending Chicago Center
08:07PM 40.8408 -85.3233 37° Northeast 444 511 23,100 -1,500 Descending Chicago Center
08:08PM 40.9356 -85.2297 37° Northeast 434 499 21,600 -1,020 Descending Chicago Center
08:09PM 41.0439 -85.1186 38° Northeast 417 480 21,000 -300 Descending Chicago Center
08:10PM 41.1333 -85.0222 39° Northeast 416 479 21,000  Level Chicago Center
08:11PM 41.2239 -84.9247 39° Northeast 421 484 21,000  Level Chicago Center
08:12PM 41.3147 -84.8272 39° Northeast 423 487 21,000  Level Chicago Center
08:13PM 41.4253 -84.7094 39° Northeast 427 491 21,000  Level Chicago Center
08:14PM 41.5156 -84.6106 39° Northeast 424 488 21,000 -180 Level Chicago Center
08:14PM 41.5356 -84.5892 39° Northeast 412 474 20,800 -1,680 Descending Cleveland Center
08:15PM 41.6242 -84.4947 39° Northeast 412 474 18,900 -1,800 Descending Cleveland Center
08:16PM 41.6969 -84.3767 50° Northeast 407 468 17,300 -1,980 Descending Cleveland Center
08:17PM 41.7200 -84.3114 65° Northeast 422 486 16,200 -2,400 Descending Cleveland Center
08:17PM 41.7519 -84.2294 62° Northeast 406 467 14,900 -2,280 Descending Cleveland Center
08:18PM 41.7767 -84.1725 60° Northeast 408 470 13,900 -2,220 Descending Cleveland Center
08:18PM 41.8017 -84.0986 66° East 393 452 12,700 -1,740 Descending Cleveland Center
08:19PM 41.8311 -84.0278 61° Northeast 386 444 12,000 -720 Descending Cleveland Center
08:19PM 41.8594 -83.9819 50° Northeast 386 444 12,000  Level Cleveland Center
08:20PM 41.8875 -83.9528 38° Northeast 359 413 12,000  Level Cleveland Center
08:20PM 41.9350 -83.8939 43° Northeast 362 417 12,000  Level Cleveland Center
08:21PM 41.9739 -83.8511 39° Northeast 361 415 12,000  Level Cleveland Center
08:21PM 42.0106 -83.8056 43° Northeast 357 411 12,000  Level Cleveland Center
08:22PM 42.0539 -83.7517 43° Northeast 361 415 12,000  Level Cleveland Center
08:22PM 42.0839 -83.7139 43° Northeast 357 411 12,000  Level Cleveland Center
08:23PM 42.1228 -83.6683 41° Northeast 361 415 12,000 -120 Level Cleveland Center
08:23PM 42.1572 -83.6253 43° Northeast 357 411 11,900 -900 Descending Cleveland Center
08:24PM 42.1939 -83.5850 39° Northeast 334 384 11,100 -900 Descending Cleveland Center
08:24PM 42.2239 -83.5442 45° Northeast 342 394 11,000 -420 Descending Cleveland Center
08:25PM 42.2603 -83.5150 31° Northeast 271 312 10,700 -1,140 Descending Cleveland Center
08:25PM 42.2939 -83.4969 22° Northeast 291 335 9,900 -1,380 Descending Cleveland Center
08:26PM 42.3297 -83.4817 17° North 224 258 9,300 -1,320 Descending Cleveland Center
08:26PM 42.3531 -83.4661 26° Northeast 237 273 8,600 -1,560 Descending Cleveland Center
08:27PM 42.3828 -83.4533 18° North 233 268 7,900 -1,380 Descending Cleveland Center
08:28PM 42.4339 -83.4078 33° Northeast 236 272 6,700 -1,260 Descending Cleveland Center
08:29PM 42.4342 -83.3092 90° East 231 266 5,300 -960 Descending Cleveland Center
08:30PM 42.3911 -83.2764 151° Southeast 192 221 4,700 -660 Descending Cleveland Center